• Join FlightAware (Why Join?)
  • Login
  • US Flag 
01:01PM EDT


 

Airport Tracker/Info


-or-


 

Live Flight TrackerFlight Track Log ✈ RPA3253 ✈ 19-Jul-2013 ✈ KALB - KCLT

Flight Track Log - Related Links

Times and Time Zones

All times are in EDT time to prevent confusion due to time zone crossing. See the RPA3253 flight status page for this flight to view local times or setup timezone preferences in your user account.

Time Position Orientation Groundspeed Altitude Reporting Facility
EDT Latitude Longitude Course Direction KTS MPH feet Rate Location/Type
07:29PM 42.7483 -73.8339 169° South 144 166 1,300  Level Boston Center
07:30PM 42.7475 -73.8906 269° West 186 214 2,400 1,860 Climbing Boston Center
07:32PM 42.4501 -74.1262 180° South  Level Estimated
07:32PM 42.8339 -73.9831 322° Northwest 270 311 6,100  Level Boston Center
07:33PM 42.3752 -74.2068 170° South  Level Estimated
07:33PM 42.8936 -74.0272 332° Northwest 262 302 9,300  Level Boston Center
07:34PM 42.3003 -74.2872 180° South  Level Estimated
07:34PM 42.9300 -74.1047 303° West 244 281 10,900  Level Boston Center
07:35PM 42.2253 -74.3674 169° South  Level Estimated
07:35PM 42.8564 -74.1508 205° Southwest 172 198 12,800  Level Boston Center
07:36PM 42.7753 -74.1486 179° South 272 313 15,200 2,220 Climbing Boston Center
07:37PM 42.6756 -74.1317 173° South 334 384 17,300 2,160 Climbing Boston Center
07:38PM 42.5844 -74.0897 161° South 350 403 19,600 1,860 Climbing Boston Center
07:39PM 42.4842 -74.0897 180° South 350 403 21,100 1,620 Climbing Boston Center
07:40PM 42.3800 -74.0928 181° South 361 415 22,900 1,560 Climbing Boston Center
07:41PM 42.2797 -74.1153 189° South 366 421 24,300 1,260 Climbing Boston Center
07:42PM 42.1731 -74.1378 189° South 371 427 25,500 1,200 Climbing Boston Center
07:43PM 42.0644 -74.1572 188° South 384 442 26,700 1,020 Climbing Boston Center
07:44PM 41.9075 -74.1850 188° South 397 457 28,200 960 Climbing New York Center
07:45PM 41.7925 -74.2042 187° South 408 470 29,200 960 Climbing New York Center
07:46PM 41.6775 -74.2286 189° South 414 476 30,200 960 Climbing New York Center
07:47PM 41.5622 -74.2506 188° South 419 482 31,200 900 Climbing New York Center
07:48PM 41.4450 -74.2750 189° South 425 489 32,000 900 Climbing New York Center
07:49PM 41.3108 -74.2983 187° South 439 505 33,000 840 Climbing New York Center
07:50PM 41.1936 -74.3197 188° South 439 505 33,800 780 Climbing New York Center
07:51PM 41.0936 -74.3914 208° Southwest 420 483 34,600 720 Climbing New York Center
07:52PM 41.0011 -74.4828 217° Southwest 413 475 35,300 660 Climbing New York Center
07:53PM 40.9108 -74.5711 216° Southwest 418 481 36,000 300 Climbing New York Center
07:54PM 40.8144 -74.6564 214° Southwest 418 481 36,000  Level New York Center
07:55PM 40.7139 -74.7300 209° Southwest 418 481 36,000  Level New York Center
07:56PM 40.6136 -74.8033 209° Southwest 418 481 36,000  Level New York Center
07:57PM 40.5131 -74.8794 210° Southwest 424 488 36,000  Level New York Center
07:58PM 40.4103 -74.9550 209° Southwest 429 494 36,000  Level New York Center
07:59PM 40.3056 -75.0303 209° Southwest 434 499 36,000  Level New York Center
08:00PM 40.2025 -75.1083 210° Southwest 434 499 36,000  Level New York Center
08:01PM 40.0997 -75.1833 209° Southwest 434 499 36,000  Level New York Center
08:02PM 39.9947 -75.2633 210° Southwest 434 499 36,000  Level New York Center
08:04PM 39.8947 -75.4589 236° Southwest 394 453 36,000  Level Washington Center
08:05PM 39.8281 -75.5806 235° Southwest 413 475 36,000  Level Washington Center
08:06PM 39.7511 -75.6967 229° Southwest 432 497 36,000  Level Washington Center
08:07PM 39.6697 -75.8125 228° Southwest 437 503 36,000  Level Washington Center
08:08PM 39.5881 -75.9281 227° Southwest 437 503 36,000  Level Washington Center
08:09PM 39.5106 -76.0461 230° Southwest 437 503 36,000  Level Washington Center
08:10PM 39.4308 -76.1611 228° Southwest 437 503 36,000  Level Washington Center
08:11PM 39.3469 -76.2758 227° Southwest 437 503 36,000  Level Washington Center
08:12PM 39.2650 -76.3931 228° Southwest 437 503 36,000  Level Washington Center
08:13PM 39.1872 -76.5075 229° Southwest 437 503 36,000  Level Washington Center
08:14PM 39.1050 -76.6242 228° Southwest 437 503 36,000  Level Washington Center
08:15PM 39.0353 -76.7219 227° Southwest 437 503 36,000  Level Washington Center
08:16PM 38.9528 -76.8408 228° Southwest 437 503 36,000  Level Washington Center
08:17PM 38.8744 -76.9542 228° Southwest 437 503 36,000  Level Washington Center
08:18PM 38.7939 -77.0644 227° Southwest 437 503 36,000  Level Washington Center
08:19PM 38.7133 -77.1800 228° Southwest 437 503 36,000  Level Washington Center
08:20PM 38.6344 -77.2925 228° Southwest 437 503 36,000  Level Washington Center
08:21PM 38.5536 -77.4075 228° Southwest 437 503 36,000  Level Washington Center
08:22PM 38.4747 -77.5250 229° Southwest 437 503 36,000  Level Washington Center
08:23PM 38.3936 -77.6394 228° Southwest 437 503 36,000  Level Washington Center
08:24PM 38.3186 -77.7539 230° Southwest 437 503 36,000  Level Washington Center
08:25PM 38.2372 -77.8653 227° Southwest 437 503 36,000  Level Washington Center
08:26PM 38.1578 -77.9817 229° Southwest 437 503 36,000  Level Washington Center
08:27PM 38.0783 -78.0925 228° Southwest 437 503 36,000  Level Washington Center
08:28PM 37.9967 -78.2136 229° Southwest 432 497 36,000  Level Washington Center
08:29PM 37.9256 -78.3164 229° Southwest 425 489 36,000  Level Washington Center
08:30PM 37.8458 -78.4239 227° Southwest 425 489 36,000  Level Washington Center
08:31PM 37.7658 -78.5367 228° Southwest 430 495 36,000  Level Washington Center
08:32PM 37.6775 -78.6564 227° Southwest 425 489 36,000  Level Washington Center
08:33PM 37.6364 -78.7886 249° West 409 471 36,000 -600 Level Washington Center
08:34PM 37.6200 -78.9322 262° West 403 464 34,800 -1,020 Descending Washington Center
08:35PM 37.5972 -79.0728 258° West 410 472 34,000 -420 Descending Washington Center
08:36PM 37.5067 -79.1733 221° Southwest 407 468 34,000  Level Washington Center
08:37PM 37.4106 -79.2444 210° Southwest 421 484 34,000  Level Washington Center
08:38PM 37.3014 -79.3308 212° Southwest 445 512 34,000  Level Washington Center
08:39PM 37.1825 -79.4006 205° Southwest 466 536 34,000  Level Washington Center
08:40PM 37.0717 -79.4758 208° Southwest 466 536 34,000  Level Washington Center
08:41PM 36.9583 -79.5558 209° Southwest 466 536 34,000 -720 Level Washington Center
08:42PM 36.8344 -79.6428 209° Southwest 466 536 32,600 -1,980 Descending Washington Center
08:44PM 36.6250 -79.7864 209° Southwest 471 542 28,300 -2,520 Descending Atlanta Center
08:45PM 36.5047 -79.8703 209° Southwest 464 534 25,400 -2,700 Descending Atlanta Center
08:46PM 36.4008 -79.9453 210° Southwest 453 521 23,000 -1,740 Descending Atlanta Center
08:47PM 36.3053 -80.0144 210° Southwest 425 489 22,000 -540 Descending Atlanta Center
08:48PM 36.2158 -80.0908 215° Southwest 408 470 22,000 -360 Level Atlanta Center
08:49PM 36.1347 -80.1592 214° Southwest 395 455 21,300 -1,500 Descending Atlanta Center
08:50PM 36.0472 -80.2353 215° Southwest 390 449 19,000 -2,340 Descending Atlanta Center
08:51PM 35.9619 -80.3061 214° Southwest 385 443 16,700 -2,520 Descending Atlanta Center
08:52PM 35.8744 -80.3844 216° Southwest 374 430 14,000 -2,220 Descending Atlanta Center
08:52PM 35.8194 -80.4303 214° Southwest 336 387 13,000 -600 Descending Atlanta Center
08:53PM 35.7525 -80.4897 216° Southwest 292 336 13,000 -780 Level Atlanta Center
08:54PM 35.7092 -80.5758 238° Southwest 291 335 11,500 -1,560 Descending Atlanta Center
08:56PM 35.6511 -80.6678 232° Southwest 297 342 9,400 -1,860 Descending Atlanta Center
08:56PM 35.6069 -80.7336 230° Southwest 281 323 7,800 -1,860 Descending Atlanta Center
08:57PM 35.5589 -80.8094 232° Southwest 275 316 6,200 -900 Descending Atlanta Center
08:59PM 35.5106 -80.8778 229° Southwest 271 312 6,000 -780 Descending Atlanta Center
09:00PM 35.4600 -80.9408 225° Southwest 269 310 4,700 -1,500 Descending Atlanta Center
09:01PM 35.3858 -80.9717 199° South 256 295 3,000 -1,140 Descending Atlanta Center
09:02PM 35.3272 -80.9636 174° South 192 221 2,500 -540 Descending Atlanta Center